Kingsbury, Nevada
Current Conditions -  °F | °C
As of 3:53 PM on Saturday 22 Nov 2014 (Local Time) from KTVL Reporting Station
Light Rain Light Rain  
Wind Chill: 40°   Ceiling: 3700
Heat Index: 45°   Visibility: 10mi
Dew Point: 30°   Wind: 10mph
Humidity: 56%   Direction: 210°SSW
Pressure: 30.07"   Gusts: 25mph
Location:  39.0164°N, 119.925°W
Report Text: KTVL 222353Z AUTO 21009G22KT 180V240 10SM -RA FEW027 BKN037 07/M01 A3007 RMK AO2 SLP154 P0000 60004 T00721011 10106 20067 51009
Loading
Personal Weather Stations






























Interactive Weather Map New forecast layout! Learn more

10-Day Weather Forecast

Advertisements
Track Severe Weather on mobile